Time;durP1;ratioP1;P1;durP2;ratioP2;P2;SDS_P1;SDS_P2;PMS_P1;PMS_P2;Temp;Humidity;BMP_temperature;BMP_pressure;BME280_temperature;BME280_humidity;BME280_pressure;Samples;Min_cycle;Max_cycle;Signal;HPM_P1;HPM_P2
2021/09/05 00:01:44;;;;;;;23.93;10.73;;;17.40;93.20;;;;;;5055550;28;20583;-67
2021/09/05 00:04:11;;;;;;;628.63;179.73;;;17.20;91.90;;;;;;5054276;28;20191;-67
2021/09/05 00:06:38;;;;;;;30.63;14.97;;;17.20;91.60;;;;;;5051449;28;20594;-66
2021/09/05 00:09:06;;;;;;;613.43;177.70;;;17.00;91.10;;;;;;5050991;28;20429;-65
2021/09/05 00:11:33;;;;;;;29.93;12.97;;;17.20;91.30;;;;;;5054236;28;20798;-66
2021/09/05 00:14:01;;;;;;;21.77;9.37;;;17.10;91.30;;;;;;5055977;28;20665;-66
2021/09/05 00:16:30;;;;;;;22.10;8.83;;;17.30;91.10;;;;;;5054694;28;20169;-66
2021/09/05 00:18:58;;;;;;;23.83;9.33;;;17.40;90.90;;;;;;5048124;28;20188;-70
2021/09/05 00:21:26;;;;;;;23.70;9.17;;;17.60;90.70;;;;;;5052831;28;20344;-68
2021/09/05 00:23:53;;;;;;;36.37;12.00;;;17.70;91.00;;;;;;5050041;28;20269;-67
2021/09/05 00:26:21;;;;;;;668.30;189.37;;;17.80;90.90;;;;;;5051754;28;20182;-68
2021/09/05 00:28:48;;;;;;;685.90;199.47;;;17.90;90.40;;;;;;5053392;28;20431;-69
2021/09/05 00:31:16;;;;;;;22.00;8.83;;;17.80;90.10;;;;;;5057276;28;20469;-67
2021/09/05 00:33:44;;;;;;;24.60;9.83;;;18.00;89.30;;;;;;5056398;28;20293;-66
2021/09/05 00:36:11;;;;;;;389.10;107.90;;;18.10;90.60;;;;;;5058554;28;20207;-66
2021/09/05 00:38:39;;;;;;;17.53;10.40;;;18.10;90.10;;;;;;5062630;28;20448;-65
2021/09/05 00:41:06;;;;;;;47.10;13.97;;;18.00;90.00;;;;;;5051469;28;20179;-65
2021/09/05 00:43:56;;;;;;;32.77;11.20;;;18.20;87.90;;;;;;5051947;28;20216;-67
2021/09/05 00:46:23;;;;;;;18.20;7.53;;;17.70;88.10;;;;;;5050354;28;20177;-66
2021/09/05 00:48:51;;;;;;;181.20;47.23;;;17.80;87.20;;;;;;5059180;28;20187;-64
2021/09/05 00:51:18;;;;;;;15.27;6.90;;;17.80;88.30;;;;;;5059976;28;20428;-67
2021/09/05 00:53:46;;;;;;;692.27;187.47;;;17.80;85.80;;;;;;5058174;28;20675;-66
2021/09/05 00:56:15;;;;;;;695.83;197.03;;;17.80;84.90;;;;;;5048641;28;20946;-64
2021/09/05 00:58:42;;;;;;;28.57;11.67;;;17.50;87.10;;;;;;5054788;28;20449;-65
2021/09/05 01:01:09;;;;;;;24.33;9.20;;;17.50;87.00;;;;;;5052673;28;20242;-68
2021/09/05 01:03:40;;;;;;;43.93;13.60;;;17.60;86.50;;;;;;5064324;28;20208;-66
2021/09/05 01:06:08;;;;;;;24.50;9.57;;;17.80;85.00;;;;;;5049465;28;20187;-67
2021/09/05 01:08:35;;;;;;;25.43;11.27;;;18.10;85.20;;;;;;5063878;28;20198;-68
2021/09/05 01:11:04;;;;;;;24.83;10.20;;;18.00;85.50;;;;;;5053932;28;20187;-66
2021/09/05 01:13:32;;;;;;;662.67;183.50;;;18.10;85.90;;;;;;5053638;28;20253;-67
2021/09/05 01:15:59;;;;;;;681.80;181.30;;;18.50;86.10;;;;;;5053780;28;20774;-66
2021/09/05 01:18:27;;;;;;;720.73;199.30;;;18.80;85.00;;;;;;5052665;28;20412;-67
2021/09/05 01:20:54;;;;;;;671.90;188.33;;;18.60;83.50;;;;;;5058424;28;20453;-67
2021/09/05 01:23:21;;;;;;;701.83;192.97;;;18.50;84.30;;;;;;5062043;28;20990;-67
2021/09/05 01:25:49;;;;;;;245.43;67.03;;;18.50;83.70;;;;;;5058633;28;20524;-67
2021/09/05 01:28:16;;;;;;;15.13;6.90;;;18.60;83.40;;;;;;5051234;28;20466;-68
2021/09/05 01:30:44;;;;;;;502.67;137.57;;;19.00;83.30;;;;;;5072597;28;20562;-68
2021/09/05 01:33:14;;;;;;;21.53;8.87;;;18.80;81.40;;;;;;5058530;28;20498;-67
2021/09/05 01:35:41;;;;;;;392.17;108.07;;;18.70;81.00;;;;;;5058875;28;20532;-66
2021/09/05 01:38:09;;;;;;;720.67;203.10;;;19.10;81.90;;;;;;5061574;28;20415;-66
2021/09/05 01:40:36;;;;;;;477.77;135.47;;;19.10;80.60;;;;;;5059584;28;20450;-68
2021/09/05 01:43:03;;;;;;;673.80;185.33;;;19.10;80.30;;;;;;5068663;28;20471;-69
2021/09/05 01:45:31;;;;;;;453.47;124.07;;;19.10;81.80;;;;;;5057113;28;20426;-66
2021/09/05 01:47:58;;;;;;;14.73;7.30;;;19.20;81.90;;;;;;5046444;28;20436;-67
2021/09/05 01:50:25;;;;;;;217.33;59.27;;;19.50;80.50;;;;;;5055814;28;20179;-68
2021/09/05 01:52:53;;;;;;;24.27;10.30;;;19.30;79.60;;;;;;5053758;28;20431;-66
2021/09/05 01:55:20;;;;;;;732.23;199.50;;;19.20;80.70;;;;;;5037020;28;20234;-68
2021/09/05 01:57:47;;;;;;;31.43;14.80;;;19.10;78.80;;;;;;5058229;28;20438;-68
2021/09/05 02:00:15;;;;;;;723.60;201.33;;;19.20;80.50;;;;;;5044004;28;20176;-67
2021/09/05 02:02:42;;;;;;;999.00;277.70;;;19.60;80.50;;;;;;5052323;28;20567;-67
2021/09/05 02:05:10;;;;;;;490.27;134.47;;;19.90;80.50;;;;;;5051677;28;20446;-64
2021/09/05 02:07:37;;;;;;;724.10;209.70;;;19.30;79.70;;;;;;5062085;28;20435;-67
2021/09/05 02:10:05;;;;;;;25.13;8.60;;;19.00;78.00;;;;;;5052854;28;20411;-68
2021/09/05 02:12:33;;;;;;;668.90;193.60;;;19.10;78.20;;;;;;5053955;28;20187;-71
2021/09/05 02:15:00;;;;;;;667.40;189.30;;;19.40;78.40;;;;;;5061873;28;20412;-66
2021/09/05 02:17:28;;;;;;;671.17;193.40;;;19.40;78.50;;;;;;5061368;28;20429;-65
2021/09/05 02:19:55;;;;;;;13.97;7.93;;;19.60;77.90;;;;;;5060759;28;20835;-65
2021/09/05 02:22:22;;;;;;;446.00;126.97;;;19.30;78.90;;;;;;5057811;28;20265;-66
2021/09/05 02:24:50;;;;;;;13.27;7.73;;;19.70;79.60;;;;;;5054354;28;20448;-66
2021/09/05 02:27:17;;;;;;;720.30;202.67;;;20.00;77.50;;;;;;5054871;28;20199;-67
2021/09/05 02:29:44;;;;;;;711.60;203.37;;;19.60;75.80;;;;;;5054281;28;20420;-65
2021/09/05 02:32:12;;;;;;;674.50;186.60;;;18.80;77.20;;;;;;5065052;28;21064;-64
2021/09/05 02:34:39;;;;;;;473.13;134.43;;;19.20;77.00;;;;;;5072842;28;20886;-64
2021/09/05 02:37:09;;;;;;;46.97;14.40;;;19.60;77.80;;;;;;5052868;28;20428;-66
2021/09/05 02:39:36;;;;;;;685.13;191.03;;;20.20;76.20;;;;;;5053333;28;20180;-65
2021/09/05 02:42:04;;;;;;;45.80;14.67;;;20.20;74.70;;;;;;5054439;28;20467;-66
2021/09/05 02:44:31;;;;;;;729.43;211.93;;;20.00;74.70;;;;;;5058582;28;20176;-66
2021/09/05 02:46:58;;;;;;;474.70;133.30;;;19.50;74.60;;;;;;5055283;28;20417;-66
2021/09/05 02:49:27;;;;;;;14.40;7.40;;;18.80;76.10;;;;;;5056026;28;20435;-66
2021/09/05 02:51:55;;;;;;;665.03;190.73;;;18.30;74.90;;;;;;5056020;28;20240;-68
2021/09/05 02:54:22;;;;;;;658.13;188.10;;;18.50;74.30;;;;;;5054023;28;20780;-65
2021/09/05 02:56:50;;;;;;;652.93;183.30;;;18.70;74.70;;;;;;5059103;28;20495;-67
2021/09/05 02:59:17;;;;;;;701.57;205.40;;;18.70;75.20;;;;;;5052008;28;21040;-65
2021/09/05 03:01:44;;;;;;;466.93;130.83;;;18.70;74.70;;;;;;5059826;28;20830;-67
2021/09/05 03:04:12;;;;;;;47.70;14.13;;;19.50;74.50;;;;;;5056725;28;20482;-68
2021/09/05 03:06:39;;;;;;;445.70;128.90;;;19.70;72.60;;;;;;5059280;28;20278;-67
2021/09/05 03:09:06;;;;;;;709.10;210.47;;;19.30;73.30;;;;;;5058451;28;20757;-67
2021/09/05 03:11:33;;;;;;;15.17;6.83;;;18.80;72.10;;;;;;5063191;28;20473;-68
2021/09/05 03:14:01;;;;;;;19.50;9.93;;;18.30;73.60;;;;;;5056732;28;20225;-65
2021/09/05 03:16:28;;;;;;;693.10;192.00;;;18.00;73.60;;;;;;5050622;28;20186;-69
2021/09/05 03:18:55;;;;;;;13.90;6.27;;;18.70;72.50;;;;;;5054350;28;20424;-66
2021/09/05 03:21:23;;;;;;;14.10;6.43;;;19.10;70.60;;;;;;5056230;28;20369;-66
2021/09/05 03:23:50;;;;;;;12.67;7.17;;;19.30;69.20;;;;;;5067380;28;20179;-67
2021/09/05 03:26:18;;;;;;;13.60;7.23;;;19.40;68.50;;;;;;5059348;28;20184;-69
2021/09/05 03:28:45;;;;;;;650.23;187.73;;;19.60;68.50;;;;;;5065365;28;20194;-68
2021/09/05 03:31:12;;;;;;;24.07;8.87;;;20.10;68.00;;;;;;5071325;28;20465;-65
2021/09/05 03:33:40;;;;;;;467.00;129.10;;;20.20;67.90;;;;;;5053597;28;20646;-65
2021/09/05 03:36:07;;;;;;;14.10;6.87;;;20.50;67.90;;;;;;5059644;28;20432;-67
2021/09/05 03:38:34;;;;;;;711.13;200.93;;;20.20;67.30;;;;;;5059727;28;20184;-66
2021/09/05 03:41:02;;;;;;;732.03;201.33;;;20.20;67.80;;;;;;5048465;28;20582;-66
2021/09/05 03:43:29;;;;;;;716.37;198.20;;;20.20;68.30;;;;;;5052348;28;20436;-67
2021/09/05 03:45:56;;;;;;;470.47;134.20;;;20.30;67.70;;;;;;5054490;28;20651;-66
2021/09/05 03:48:24;;;;;;;689.13;200.23;;;19.40;68.70;;;;;;5053341;28;20446;-68
2021/09/05 03:50:51;;;;;;;46.27;14.00;;;19.20;70.20;;;;;;5051818;28;20791;-68
2021/09/05 03:53:18;;;;;;;499.20;130.73;;;20.00;69.10;;;;;;5050792;28;20259;-68
2021/09/05 03:55:46;;;;;;;510.90;138.60;;;21.20;67.80;;;;;;5056734;28;20420;-69
2021/09/05 03:58:13;;;;;;;509.90;134.63;;;20.70;68.00;;;;;;5060533;28;20486;-64
2021/09/05 04:00:41;;;;;;;193.73;50.40;;;20.60;67.70;;;;;;5059854;28;20511;-65
2021/09/05 04:03:08;;;;;;;739.60;199.67;;;20.60;67.50;;;;;;5063046;28;20214;-64
2021/09/05 04:05:35;;;;;;;515.27;139.77;;;20.40;68.40;;;;;;5073533;28;20515;-65
2021/09/05 04:10:30;;;;;;;519.60;150.90;;;20.80;67.40;;;;;;5061546;28;20923;-67
2021/09/05 04:12:58;;;;;;;801.07;527.40;;;20.70;68.30;;;;;;5050019;28;20431;-67
2021/09/05 04:15:26;;;;;;;1143.13;781.50;;;21.00;67.40;;;;;;5052719;28;20478;-66
2021/09/05 04:17:54;;;;;;;756.03;481.90;;;20.80;68.10;;;;;;5056389;28;20425;-68
2021/09/05 04:20:21;;;;;;;743.30;203.90;;;20.60;67.70;;;;;;5054587;28;20478;-71
2021/09/05 04:22:49;;;;;;;434.20;124.43;;;19.80;68.40;;;;;;5054337;28;20472;-68
2021/09/05 04:25:17;;;;;;;14.33;8.73;;;19.00;70.20;;;;;;5050561;28;20954;-69
2021/09/05 04:27:45;;;;;;;12.80;6.37;;;18.50;71.70;;;;;;5053516;28;20294;-68
2021/09/05 04:30:12;;;;;;;13.33;5.93;;;18.30;71.90;;;;;;5052618;28;20261;-69
2021/09/05 04:32:42;;;;;;;16.13;8.77;;;18.00;72.40;;;;;;5064677;28;20183;-65
2021/09/05 04:35:09;;;;;;;15.43;7.23;;;18.10;73.30;;;;;;5069274;28;20192;-64
2021/09/05 04:37:37;;;;;;;518.67;171.13;;;18.10;73.50;;;;;;5072875;28;20218;-67
2021/09/05 04:40:05;;;;;;;14.60;6.47;;;18.20;73.90;;;;;;5072736;28;20414;-65
2021/09/05 04:42:35;;;;;;;15.37;7.33;;;18.10;73.90;;;;;;5072298;28;20221;-67
2021/09/05 04:45:03;;;;;;;15.13;6.80;;;18.10;74.20;;;;;;5052880;28;20182;-66
2021/09/05 04:47:30;;;;;;;14.77;6.57;;;18.20;74.10;;;;;;5069361;28;20187;-69
2021/09/05 04:49:57;;;;;;;14.00;5.27;;;18.50;73.50;;;;;;5058740;28;20213;-67
2021/09/05 04:52:26;;;;;;;14.87;6.43;;;18.30;73.90;;;;;;5064730;28;20237;-67
2021/09/05 04:54:54;;;;;;;15.43;7.47;;;18.10;74.60;;;;;;5058936;28;20186;-66
2021/09/05 04:57:21;;;;;;;14.73;6.53;;;18.30;74.80;;;;;;5060512;28;20183;-69
2021/09/05 04:59:48;;;;;;;14.40;5.73;;;18.30;73.50;;;;;;5072879;28;20181;-67
2021/09/05 05:02:16;;;;;;;15.77;8.27;;;18.20;73.70;;;;;;5072472;28;20230;-66
2021/09/05 05:04:43;;;;;;;16.30;9.23;;;18.20;74.40;;;;;;5067609;28;20197;-67
2021/09/05 05:07:10;;;;;;;14.70;6.17;;;18.10;74.30;;;;;;5046399;28;20221;-66
2021/09/05 05:09:43;;;;;;;14.90;6.80;;;17.90;74.20;;;;;;5054461;28;20178;-67
2021/09/05 05:12:13;;;;;;;15.93;8.07;;;17.70;74.80;;;;;;5055220;28;20437;-67
2021/09/05 05:14:40;;;;;;;15.30;7.43;;;17.40;74.70;;;;;;5072278;28;20512;-68
2021/09/05 05:17:08;;;;;;;14.80;6.60;;;17.40;75.00;;;;;;5055623;28;20433;-68
2021/09/05 05:19:35;;;;;;;15.90;8.77;;;17.40;75.10;;;;;;5055671;28;20420;-68
2021/09/05 05:22:03;;;;;;;16.10;8.67;;;17.30;75.20;;;;;;5054026;28;20984;-67
2021/09/05 05:24:31;;;;;;;17.67;10.27;;;17.30;75.20;;;;;;5057552;28;20189;-69
2021/09/05 05:26:58;;;;;;;15.03;6.87;;;17.30;75.00;;;;;;5045571;28;20708;-67
2021/09/05 05:29:25;;;;;;;17.10;8.20;;;17.30;76.00;;;;;;5048099;28;20544;-69
2021/09/05 05:31:53;;;;;;;14.37;5.80;;;17.30;76.90;;;;;;5059983;28;20263;-68
2021/09/05 05:34:20;;;;;;;17.13;9.87;;;17.20;77.00;;;;;;5052643;28;20227;-68
2021/09/05 05:36:47;;;;;;;16.13;8.83;;;17.20;77.70;;;;;;5051976;28;20436;-67
2021/09/05 05:39:15;;;;;;;16.47;8.70;;;17.30;77.30;;;;;;5056979;28;20425;-70
2021/09/05 05:41:42;;;;;;;15.53;7.57;;;17.10;76.70;;;;;;5058681;28;20476;-68
2021/09/05 05:44:09;;;;;;;16.20;8.63;;;17.10;76.80;;;;;;5060884;28;20935;-68
2021/09/05 05:46:37;;;;;;;17.10;9.53;;;17.00;76.60;;;;;;5061024;28;20183;-66
2021/09/05 05:49:04;;;;;;;18.50;11.63;;;17.50;76.10;;;;;;5053918;28;20190;-67
2021/09/05 05:51:31;;;;;;;15.10;6.73;;;17.60;75.80;;;;;;5052204;28;20184;-67
2021/09/05 05:53:59;;;;;;;16.90;9.47;;;17.30;76.80;;;;;;5056327;28;20187;-67
2021/09/05 05:56:26;;;;;;;16.70;9.23;;;17.20;76.00;;;;;;5057213;28;20221;-66
2021/09/05 05:58:54;;;;;;;15.60;7.73;;;16.90;77.20;;;;;;5054505;28;20196;-65
2021/09/05 06:01:23;;;;;;;14.90;6.63;;;16.80;77.80;;;;;;5055243;28;20566;-68
2021/09/05 06:03:50;;;;;;;15.07;6.90;;;16.70;78.00;;;;;;5051751;28;20635;-67
2021/09/05 06:06:18;;;;;;;16.27;6.47;;;16.60;77.80;;;;;;5055012;28;20190;-65
2021/09/05 06:08:45;;;;;;;16.40;9.10;;;16.50;78.20;;;;;;5054725;28;20416;-69
2021/09/05 06:11:12;;;;;;;14.80;6.47;;;16.40;78.40;;;;;;5055613;28;20508;-68
2021/09/05 06:13:40;;;;;;;15.10;7.13;;;16.40;79.20;;;;;;5057424;28;20179;-67
2021/09/05 06:16:07;;;;;;;16.50;9.30;;;16.30;79.50;;;;;;5057023;28;20184;-70
2021/09/05 06:18:34;;;;;;;15.63;8.13;;;16.20;80.30;;;;;;5053357;28;20176;-68
2021/09/05 06:21:02;;;;;;;15.53;7.97;;;16.20;80.30;;;;;;5055266;28;20840;-67
2021/09/05 06:23:30;;;;;;;15.33;7.27;;;16.10;80.70;;;;;;5049283;28;20451;-68
2021/09/05 06:25:57;;;;;;;15.50;7.53;;;16.10;80.80;;;;;;5056228;28;20413;-68
2021/09/05 06:28:25;;;;;;;15.63;7.97;;;16.00;81.10;;;;;;5057337;28;21133;-68
2021/09/05 06:30:52;;;;;;;15.70;7.80;;;16.00;81.60;;;;;;5055710;28;20421;-66
2021/09/05 06:33:19;;;;;;;15.47;7.10;;;16.00;82.20;;;;;;5058010;28;20433;-64
2021/09/05 06:35:46;;;;;;;15.67;7.97;;;15.90;82.10;;;;;;5058250;28;20965;-65
2021/09/05 06:38:14;;;;;;;17.10;10.30;;;15.90;82.50;;;;;;5058482;28;20444;-65
2021/09/05 06:40:41;;;;;;;15.30;7.23;;;15.90;82.60;;;;;;5059418;28;20425;-66
2021/09/05 06:43:08;;;;;;;15.03;6.87;;;15.80;82.60;;;;;;5056279;28;20481;-67
2021/09/05 06:45:36;;;;;;;15.17;6.73;;;15.80;83.00;;;;;;5053828;28;20452;-67
2021/09/05 06:48:03;;;;;;;16.07;8.30;;;15.80;83.10;;;;;;5056322;28;20543;-66
2021/09/05 06:50:31;;;;;;;17.27;10.90;;;15.80;84.00;;;;;;5059701;28;20424;-66
2021/09/05 06:52:58;;;;;;;16.83;9.17;;;15.80;83.60;;;;;;5049976;28;20455;-66
2021/09/05 06:55:26;;;;;;;16.37;9.00;;;15.80;83.80;;;;;;5059702;28;20444;-68
2021/09/05 06:57:54;;;;;;;15.10;7.13;;;15.70;83.80;;;;;;5059893;28;20435;-69
2021/09/05 07:00:21;;;;;;;18.57;12.10;;;15.60;84.00;;;;;;5057283;28;20955;-68
2021/09/05 07:02:48;;;;;;;14.60;6.13;;;15.60;84.20;;;;;;5053980;28;20551;-68
2021/09/05 07:05:16;;;;;;;15.63;8.27;;;15.50;85.00;;;;;;5057219;28;20427;-67
2021/09/05 07:07:43;;;;;;;15.23;7.47;;;15.40;85.80;;;;;;5058714;28;20436;-69
2021/09/05 07:10:11;;;;;;;16.23;8.27;;;15.30;87.70;;;;;;5055689;28;21529;-69
2021/09/05 07:12:39;;;;;;;15.80;8.27;;;15.20;88.10;;;;;;5056636;28;20429;-70
2021/09/05 07:15:07;;;;;;;15.30;7.27;;;15.10;90.30;;;;;;5056181;28;20409;-68
2021/09/05 07:17:34;;;;;;;15.50;8.07;;;14.90;91.60;;;;;;5051625;28;20449;-67
2021/09/05 07:20:01;;;;;;;15.20;7.07;;;14.70;93.90;;;;;;5054695;28;20432;-67
2021/09/05 07:22:29;;;;;;;16.20;9.50;;;14.60;93.60;;;;;;5053915;28;20491;-68
2021/09/05 07:24:56;;;;;;;17.63;12.83;;;14.60;92.90;;;;;;5054068;28;20413;-68
2021/09/05 07:27:24;;;;;;;16.77;10.20;;;14.70;92.40;;;;;;5054870;28;20435;-67
2021/09/05 07:29:51;;;;;;;16.30;10.20;;;14.80;92.80;;;;;;5061617;28;20417;-67
2021/09/05 07:32:18;;;;;;;17.10;10.83;;;14.90;93.40;;;;;;5053064;28;20507;-70
2021/09/05 07:34:46;;;;;;;18.70;11.83;;;14.80;93.60;;;;;;5047553;28;20541;-68
2021/09/05 07:37:14;;;;;;;14.90;6.43;;;14.70;95.30;;;;;;5052856;28;20482;-67
2021/09/05 07:39:42;;;;;;;15.87;7.97;;;14.50;95.20;;;;;;5053738;28;20918;-68
2021/09/05 07:42:09;;;;;;;15.77;9.17;;;14.30;98.00;;;;;;5049381;28;20970;-71
2021/09/05 07:44:37;;;;;;;16.93;10.50;;;14.10;99.90;;;;;;5052443;28;20425;-68
2021/09/05 07:47:04;;;;;;;18.73;10.53;;;13.80;99.90;;;;;;5052476;28;20915;-67
2021/09/05 07:49:32;;;;;;;17.50;10.40;;;13.60;99.90;;;;;;5051347;28;20982;-68
2021/09/05 07:51:59;;;;;;;15.63;8.67;;;13.40;99.90;;;;;;5052643;28;20425;-68
2021/09/05 07:54:27;;;;;;;14.90;7.27;;;13.30;99.90;;;;;;5051702;28;20429;-69
2021/09/05 07:56:56;;;;;;;15.60;8.57;;;13.20;99.90;;;;;;5049266;28;20774;-68
2021/09/05 07:59:24;;;;;;;15.73;9.03;;;13.20;99.90;;;;;;5050734;28;20440;-67
2021/09/05 08:01:51;;;;;;;15.47;8.30;;;13.10;99.90;;;;;;5051569;28;21047;-67
2021/09/05 08:04:18;;;;;;;15.43;7.63;;;13.00;99.90;;;;;;5052182;28;20440;-68
2021/09/05 08:06:46;;;;;;;17.30;10.83;;;13.00;99.90;;;;;;5051880;28;20798;-69
2021/09/05 08:09:13;;;;;;;15.20;7.70;;;13.00;99.90;;;;;;5056995;28;20432;-68
2021/09/05 08:11:40;;;;;;;15.83;9.17;;;13.00;99.90;;;;;;5050685;28;20439;-67
2021/09/05 08:14:08;;;;;;;15.33;8.23;;;13.00;99.90;;;;;;5054247;28;20437;-69
2021/09/05 08:16:37;;;;;;;16.43;10.53;;;13.10;99.90;;;;;;5052658;28;20467;-68
2021/09/05 08:19:04;;;;;;;15.83;8.50;;;13.10;99.90;;;;;;5058966;28;20516;-67
2021/09/05 08:21:32;;;;;;;15.93;8.97;;;13.10;99.90;;;;;;5060741;28;20851;-67
2021/09/05 08:23:59;;;;;;;15.73;8.43;;;13.10;99.90;;;;;;5059770;28;20437;-66
2021/09/05 08:26:27;;;;;;;15.70;8.97;;;13.10;99.90;;;;;;5056550;28;20452;-66
2021/09/05 08:28:54;;;;;;;15.40;8.30;;;13.00;99.90;;;;;;5056959;28;20432;-65
2021/09/05 08:31:22;;;;;;;15.50;8.30;;;12.90;99.90;;;;;;5053244;28;20456;-66
2021/09/05 08:33:49;;;;;;;15.27;8.30;;;12.90;99.90;;;;;;5058786;28;20434;-67
2021/09/05 08:36:19;;;;;;;17.03;8.80;;;12.80;99.90;;;;;;5052789;28;20432;-65
2021/09/05 08:38:46;;;;;;;15.57;8.37;;;12.80;99.90;;;;;;5057250;28;20427;-66
2021/09/05 08:41:14;;;;;;;15.20;8.00;;;12.80;99.90;;;;;;5065809;28;20524;-66
2021/09/05 08:43:43;;;;;;;15.07;7.93;;;12.80;99.90;;;;;;5072820;28;20427;-66
2021/09/05 08:46:11;;;;;;;14.70;7.17;;;12.80;99.90;;;;;;5073179;28;20515;-66
2021/09/05 08:48:39;;;;;;;16.60;9.97;;;12.80;99.90;;;;;;5056715;28;20428;-65
2021/09/05 08:51:07;;;;;;;15.10;7.80;;;12.80;99.90;;;;;;5054822;28;20630;-67
2021/09/05 08:53:35;;;;;;;16.97;11.00;;;12.70;99.90;;;;;;5053279;28;20466;-67
2021/09/05 08:56:02;;;;;;;15.80;7.37;;;12.70;99.90;;;;;;5063992;28;20436;-67
2021/09/05 08:58:30;;;;;;;15.30;7.70;;;12.70;99.90;;;;;;5072088;28;20922;-66
2021/09/05 09:00:58;;;;;;;14.67;6.57;;;12.70;99.90;;;;;;5045625;28;20470;-66
2021/09/05 09:03:26;;;;;;;15.00;7.27;;;12.70;99.90;;;;;;5069227;28;20480;-66
2021/09/05 09:05:56;;;;;;;15.07;7.27;;;12.70;99.90;;;;;;5064149;28;20416;-66
2021/09/05 09:08:24;;;;;;;15.40;7.37;;;12.60;99.90;;;;;;5064324;28;20442;-66
2021/09/05 09:10:58;;;;;;;14.93;7.00;;;12.60;99.90;;;;;;5065756;28;20419;-66
2021/09/05 09:13:29;;;;;;;15.27;7.20;;;12.50;99.90;;;;;;5075950;28;20454;-66
2021/09/05 09:16:03;;;;;;;15.97;6.80;;;12.50;99.90;;;;;;5070263;28;20769;-66
2021/09/05 09:18:32;;;;;;;17.03;9.67;;;12.40;99.90;;;;;;5072091;28;20420;-67
2021/09/05 09:21:01;;;;;;;15.63;8.00;;;12.30;99.90;;;;;;5065457;28;20851;-66
2021/09/05 09:23:31;;;;;;;14.77;6.73;;;12.20;99.90;;;;;;5048271;28;21173;-66
2021/09/05 09:26:05;;;;;;;14.97;7.43;;;12.30;99.90;;;;;;5053122;28;20427;-67
2021/09/05 09:28:40;;;;;;;16.37;10.43;;;12.30;99.90;;;;;;5053570;28;20435;-68
2021/09/05 09:31:24;;;;;;;15.83;8.70;;;12.30;99.90;;;;;;5058063;28;20432;-67
2021/09/05 09:33:54;;;;;;;15.03;7.37;;;12.20;99.90;;;;;;5044842;28;20427;-67
2021/09/05 09:36:24;;;;;;;14.60;6.47;;;12.20;99.90;;;;;;5056418;28;20436;-68
2021/09/05 09:39:02;;;;;;;14.97;7.17;;;12.20;99.90;;;;;;5052183;28;20957;-68
2021/09/05 09:41:34;;;;;;;21.10;17.47;;;12.20;99.90;;;;;;5058988;28;20462;-69
2021/09/05 09:44:04;;;;;;;16.83;10.57;;;12.20;99.90;;;;;;5049704;28;20501;-68
2021/09/05 09:46:39;;;;;;;17.10;10.30;;;12.20;99.90;;;;;;5058575;28;20820;-68
2021/09/05 09:49:13;;;;;;;17.03;10.17;;;12.10;99.90;;;;;;5058966;28;20507;-69
2021/09/05 09:51:42;;;;;;;15.73;9.03;;;12.20;99.90;;;;;;5055539;28;20516;-67
2021/09/05 09:54:09;;;;;;;16.63;11.10;;;12.20;99.90;;;;;;5054289;28;20454;-69
2021/09/05 09:56:37;;;;;;;15.30;8.23;;;12.10;99.90;;;;;;5059947;28;20423;-68
2021/09/05 09:59:07;;;;;;;15.37;8.00;;;12.10;99.90;;;;;;5059078;28;20757;-69
2021/09/05 10:01:36;;;;;;;14.73;7.23;;;12.10;99.90;;;;;;5053163;28;20554;-69
2021/09/05 10:04:05;;;;;;;15.00;7.47;;;12.10;99.90;;;;;;5054603;28;20440;-71
2021/09/05 10:06:34;;;;;;;16.27;9.87;;;12.00;99.90;;;;;;5055699;28;20536;-68
2021/09/05 10:09:08;;;;;;;15.43;8.30;;;12.00;99.90;;;;;;5046689;28;20518;-70
2021/09/05 10:11:37;;;;;;;15.27;8.03;;;11.90;99.90;;;;;;5046993;28;20781;-69
2021/09/05 10:14:07;;;;;;;14.77;6.97;;;11.90;99.90;;;;;;5051362;28;20429;-67
2021/09/05 10:16:34;;;;;;;15.70;8.53;;;11.90;99.90;;;;;;5049591;28;20785;-67
2021/09/05 10:19:05;;;;;;;15.43;8.40;;;11.80;99.90;;;;;;5050840;28;20423;-66
2021/09/05 10:21:37;;;;;;;15.33;8.13;;;11.80;99.90;;;;;;5065879;28;20459;-67
2021/09/05 10:24:13;;;;;;;15.03;7.37;;;11.80;99.90;;;;;;5052110;28;20431;-68
2021/09/05 10:27:05;;;;;;;15.97;9.30;;;11.80;99.90;;;;;;5050274;28;20416;-67
2021/09/05 10:29:32;;;;;;;14.80;7.23;;;11.90;99.90;;;;;;5055014;28;20420;-67
2021/09/05 10:32:01;;;;;;;15.57;8.17;;;11.90;99.90;;;;;;5054522;28;20913;-68
2021/09/05 10:34:38;;;;;;;16.63;10.40;;;11.90;99.90;;;;;;5053410;28;20949;-67
2021/09/05 10:37:11;;;;;;;14.87;7.20;;;11.90;99.90;;;;;;5054280;28;20929;-68
2021/09/05 10:40:09;;;;;;;14.70;6.90;;;11.90;99.90;;;;;;5054440;28;20473;-68
2021/09/05 10:42:59;;;;;;;15.40;8.10;;;11.90;99.90;;;;;;5052280;28;20488;-69
2021/09/05 10:45:27;;;;;;;15.57;8.83;;;11.90;99.90;;;;;;5053886;28;20416;-67
2021/09/05 10:47:55;;;;;;;15.30;8.20;;;11.90;99.90;;;;;;5048205;28;20561;-69
2021/09/05 10:50:33;;;;;;;15.77;8.73;;;11.80;99.90;;;;;;5054698;28;20425;-66
2021/09/05 10:53:22;;;;;;;15.23;8.03;;;11.80;99.90;;;;;;5055845;28;20500;-67
2021/09/05 10:56:12;;;;;;;15.83;8.93;;;11.80;99.90;;;;;;5056931;28;20462;-68
2021/09/05 10:58:45;;;;;;;16.67;10.50;;;11.70;99.90;;;;;;5053643;28;20445;-68
2021/09/05 11:01:41;;;;;;;15.63;8.87;;;11.70;99.90;;;;;;5053375;28;20483;-68
2021/09/05 11:07:06;;;;;;;16.83;11.10;;;11.80;99.90;;;;;;5051762;28;20468;-68
2021/09/05 11:09:33;;;;;;;16.00;9.73;;;11.80;99.90;;;;;;5054773;28;20418;-67
2021/09/05 11:12:11;;;;;;;15.20;8.20;;;11.80;99.90;;;;;;5053602;28;20478;-66
2021/09/05 11:14:40;;;;;;;19.37;13.77;;;11.80;99.90;;;;;;5052606;28;20428;-67
2021/09/05 11:17:17;;;;;;;15.43;8.53;;;11.80;99.90;;;;;;5050391;28;20491;-67
2021/09/05 11:19:51;;;;;;;16.60;10.27;;;11.90;99.90;;;;;;5050769;28;20431;-69
2021/09/05 11:22:19;;;;;;;17.53;11.10;;;11.90;99.90;;;;;;5058744;28;20471;-67
2021/09/05 11:25:04;;;;;;;18.13;12.30;;;12.00;99.90;;;;;;5054793;28;20712;-68
2021/09/05 11:27:31;;;;;;;16.90;10.50;;;12.00;99.90;;;;;;5052975;28;20428;-68
2021/09/05 11:30:11;;;;;;;16.20;9.77;;;12.10;99.90;;;;;;5059004;28;20429;-69
2021/09/05 11:32:40;;;;;;;17.17;11.80;;;12.10;99.90;;;;;;5053185;28;20980;-68
2021/09/05 11:35:09;;;;;;;15.53;8.13;;;12.20;99.90;;;;;;5056606;28;20467;-69
2021/09/05 11:37:53;;;;;;;16.37;10.30;;;12.20;99.90;;;;;;5052439;28;20513;-67
2021/09/05 11:40:21;;;;;;;15.47;8.37;;;12.20;99.90;;;;;;5047090;28;20440;-68
2021/09/05 11:42:51;;;;;;;16.10;9.70;;;12.20;99.90;;;;;;5052047;28;20487;-67
2021/09/05 11:45:21;;;;;;;15.23;8.00;;;12.10;99.90;;;;;;5053051;28;20432;-68
2021/09/05 11:47:58;;;;;;;15.83;9.57;;;12.20;99.90;;;;;;5052643;28;20420;-69
2021/09/05 11:50:28;;;;;;;15.33;8.23;;;12.10;99.90;;;;;;5052336;28;20473;-69
2021/09/05 11:52:56;;;;;;;15.93;8.63;;;12.00;99.90;;;;;;5055612;28;20432;-66
2021/09/05 11:55:23;;;;;;;15.10;8.07;;;12.00;99.90;;;;;;5057353;28;20946;-65
2021/09/05 11:58:06;;;;;;;15.47;8.73;;;12.10;99.90;;;;;;5052438;28;20469;-66
2021/09/05 12:00:35;;;;;;;15.93;9.73;;;12.10;99.90;;;;;;5051851;28;20529;-67
2021/09/05 12:03:25;;;;;;;15.33;8.50;;;12.10;99.90;;;;;;5059931;28;20986;-66
2021/09/05 12:05:54;;;;;;;16.73;9.43;;;12.10;99.90;;;;;;5057150;28;20420;-66
2021/09/05 12:08:22;;;;;;;15.70;9.30;;;12.10;99.90;;;;;;5053963;28;20515;-66
2021/09/05 12:11:07;;;;;;;16.70;11.27;;;12.10;99.90;;;;;;5054438;28;20424;-67
2021/09/05 12:13:54;;;;;;;15.80;9.27;;;12.10;99.90;;;;;;5051430;28;20514;-71
2021/09/05 12:16:24;;;;;;;15.10;7.90;;;12.00;99.90;;;;;;5057283;28;20438;-65
2021/09/05 12:19:06;;;;;;;15.43;8.73;;;12.00;99.90;;;;;;5060921;28;20511;-67
2021/09/05 12:21:40;;;;;;;15.40;8.30;;;12.00;99.90;;;;;;5059488;28;20787;-67
2021/09/05 12:24:21;;;;;;;16.03;9.63;;;12.00;99.90;;;;;;5059907;28;20513;-65
2021/09/05 12:26:48;;;;;;;16.23;8.17;;;12.00;99.90;;;;;;5054012;28;20913;-67
2021/09/05 12:29:29;;;;;;;16.23;9.50;;;11.90;99.90;;;;;;5052358;28;20909;-67
2021/09/05 12:32:02;;;;;;;15.17;7.83;;;11.90;99.90;;;;;;5057781;28;20455;-66
2021/09/05 12:34:47;;;;;;;15.43;8.63;;;11.90;99.90;;;;;;5058815;28;20424;-67
2021/09/05 12:37:20;;;;;;;15.37;8.20;;;11.90;99.90;;;;;;5053312;28;20433;-67
2021/09/05 12:39:52;;;;;;;16.00;10.20;;;11.90;99.90;;;;;;5053865;28;20423;-67
2021/09/05 12:42:19;;;;;;;15.67;9.60;;;11.90;99.90;;;;;;5055935;28;20477;-66
2021/09/05 12:44:58;;;;;;;16.77;10.50;;;11.90;99.90;;;;;;5048479;28;20907;-68